createdAt,value
2018-05-04T00:03:43.858Z,60.15
2018-05-04T00:08:45.150Z,60.58
2018-05-04T00:13:46.448Z,61.07
2018-05-04T00:18:48.478Z,60.88
2018-05-04T00:23:49.785Z,60.91
2018-05-04T00:28:51.090Z,60.90
2018-05-04T00:33:52.381Z,60.37
2018-05-04T00:38:53.703Z,59.45
2018-05-04T00:43:55.039Z,61.24
2018-05-04T00:48:56.335Z,61.63
2018-05-04T00:54:16.030Z,61.61
2018-05-04T00:59:17.353Z,61.95
2018-05-04T01:04:18.691Z,61.88
2018-05-04T01:09:20.758Z,62.32
2018-05-04T01:14:22.069Z,62.12
2018-05-04T01:19:23.361Z,61.59
2018-05-04T01:24:24.676Z,60.96
2018-05-04T01:29:25.994Z,61.09
2018-05-04T01:34:27.294Z,61.53
2018-05-04T01:39:28.582Z,62.21
2018-05-04T01:44:29.886Z,63.42
2018-05-04T01:49:31.184Z,63.55
2018-05-04T01:54:32.499Z,63.75
2018-05-04T01:59:34.533Z,63.75
2018-05-04T02:04:35.875Z,63.41
2018-05-04T02:09:37.182Z,63.09
2018-05-04T02:14:38.485Z,63.63
2018-05-04T02:19:39.774Z,64.14
2018-05-04T02:24:41.079Z,64.58
2018-05-04T02:29:42.389Z,64.50
2018-05-04T02:34:43.677Z,65.18
2018-05-04T02:39:44.979Z,65.83
2018-05-04T02:44:46.285Z,67.45
2018-05-04T02:49:47.582Z,66.78
2018-05-04T02:54:49.616Z,65.85
2018-05-04T02:59:50.973Z,65.04
2018-05-04T03:04:52.975Z,63.76
2018-05-04T03:09:54.329Z,64.83
2018-05-04T03:14:55.725Z,65.98
2018-05-04T03:19:57.192Z,67.21
2018-05-04T03:24:58.478Z,66.96
2018-05-04T03:29:59.768Z,66.68
2018-05-04T03:35:01.092Z,66.80
2018-05-04T03:40:02.436Z,67.30
2018-05-04T03:45:04.545Z,67.97
2018-05-04T03:50:05.925Z,67.93
2018-05-04T03:55:07.970Z,68.37
2018-05-04T04:00:27.831Z,69.02
2018-05-04T04:05:29.143Z,68.53
2018-05-04T04:10:31.213Z,69.09
2018-05-04T04:15:32.531Z,68.54
2018-05-04T04:20:34.558Z,69.27
2018-05-04T04:25:35.844Z,68.23
2018-05-04T04:30:37.168Z,68.89
2018-05-04T04:35:38.492Z,68.56
2018-05-04T04:40:39.784Z,68.06
2018-05-04T04:45:41.131Z,68.87
2018-05-04T04:50:43.126Z,68.42
2018-05-04T04:55:44.422Z,67.68
2018-05-04T05:00:45.727Z,67.24
2018-05-04T05:05:47.022Z,67.03
2018-05-04T05:10:48.317Z,66.85
2018-05-04T05:15:49.616Z,66.11
2018-05-04T05:20:50.913Z,66.53
2018-05-04T05:25:52.973Z,67.03
2018-05-04T05:30:54.385Z,66.44
2018-05-04T05:35:55.657Z,64.99
2018-05-04T05:40:56.945Z,64.62
2018-05-04T05:45:58.248Z,63.33
2018-05-04T05:50:59.545Z,62.93
2018-05-04T05:56:00.829Z,62.34
2018-05-04T06:01:02.241Z,62.03
2018-05-04T06:06:03.503Z,61.75
2018-05-04T06:11:04.878Z,60.98
2018-05-04T06:16:06.198Z,60.35
2018-05-04T06:21:07.510Z,60.18
2018-05-04T06:26:09.577Z,60.15
2018-05-04T06:31:10.873Z,59.37
2018-05-04T06:36:12.181Z,58.93
2018-05-04T06:41:13.479Z,58.38
2018-05-04T06:46:15.504Z,57.62
2018-05-04T06:51:16.793Z,57.30
2018-05-04T06:56:18.093Z,57.29
2018-05-04T07:01:19.414Z,56.58
2018-05-04T07:06:20.737Z,55.46
2018-05-04T07:11:22.768Z,54.50
2018-05-04T07:16:24.096Z,53.21
2018-05-04T07:21:25.388Z,53.63
2018-05-04T07:26:26.725Z,53.69
2018-05-04T07:31:28.785Z,53.75
2018-05-04T07:36:30.090Z,53.46
2018-05-04T07:41:31.390Z,51.42
2018-05-04T07:46:32.725Z,50.37
2018-05-04T07:51:34.049Z,49.71
2018-05-04T07:56:35.361Z,49.26
2018-05-04T08:01:37.433Z,48.85
2018-05-04T08:06:38.743Z,47.93
2018-05-04T08:11:40.046Z,46.61
2018-05-04T08:16:42.142Z,45.97
2018-05-04T08:21:50.505Z,46.77
2018-05-04T08:26:51.819Z,46.97
2018-05-04T08:31:53.129Z,45.84
2018-05-04T08:36:54.438Z,43.45
2018-05-04T08:41:55.742Z,42.46
2018-05-04T08:46:57.054Z,39.91
2018-05-04T08:51:59.090Z,39.76
2018-05-04T08:57:00.405Z,39.63
2018-05-04T09:02:01.725Z,39.66
2018-05-04T09:07:03.061Z,39.07
2018-05-04T09:12:04.359Z,36.70
2018-05-04T09:17:05.666Z,37.02
2018-05-04T09:22:06.977Z,36.85
2018-05-04T09:27:08.269Z,35.28
2018-05-04T09:32:09.557Z,35.11
2018-05-04T09:37:10.867Z,34.03
2018-05-04T09:42:12.973Z,34.01
2018-05-04T09:47:14.214Z,32.80
2018-05-04T09:52:15.517Z,33.20
2018-05-04T09:57:16.823Z,33.51
2018-05-04T10:02:18.158Z,33.00
2018-05-04T10:07:19.502Z,32.61
2018-05-04T10:12:20.823Z,33.13
2018-05-04T10:17:22.140Z,32.14
2018-05-04T10:22:23.445Z,32.53
2018-05-04T10:27:24.747Z,32.42
2018-05-04T10:32:26.090Z,32.56
2018-05-04T10:37:27.494Z,32.54
2018-05-04T10:42:28.810Z,31.66
2018-05-04T10:47:30.160Z,31.04
2018-05-04T10:52:31.495Z,31.52
2018-05-04T10:57:32.824Z,30.78
2018-05-04T11:02:34.145Z,32.15
2018-05-04T11:07:35.469Z,32.46
2018-05-04T11:12:36.826Z,33.18
2018-05-04T11:17:38.154Z,32.58
2018-05-04T11:22:39.509Z,32.82
2018-05-04T11:27:40.848Z,32.08
2018-05-04T11:32:42.955Z,32.62
2018-05-04T11:37:44.277Z,32.45
2018-05-04T11:42:45.645Z,32.02
2018-05-04T11:47:47.697Z,31.49
2018-05-04T11:52:49.053Z,31.56
2018-05-04T11:57:50.422Z,31.75
2018-05-04T12:02:52.484Z,30.59
2018-05-04T12:07:53.803Z,31.39
2018-05-04T12:12:55.217Z,31.51
2018-05-04T12:17:56.529Z,31.62
2018-05-04T12:22:58.258Z,30.78
2018-05-04T12:28:00.986Z,32.13
2018-05-04T12:33:02.942Z,31.95
2018-05-04T12:38:04.269Z,31.81
2018-05-04T12:43:06.450Z,32.38
2018-05-04T12:48:07.793Z,31.67
2018-05-04T12:53:09.090Z,32.00
2018-05-04T12:58:11.151Z,32.67
2018-05-04T13:03:12.432Z,31.62
2018-05-04T13:08:13.743Z,32.32
2018-05-04T13:13:15.049Z,32.24
2018-05-04T13:18:16.372Z,33.89
2018-05-04T13:23:17.719Z,31.47
2018-05-04T13:28:19.134Z,32.04
2018-05-04T13:33:21.237Z,32.74
2018-05-04T13:38:22.462Z,32.14
2018-05-04T13:43:23.807Z,32.75
2018-05-04T13:48:25.910Z,32.78
2018-05-04T13:53:27.209Z,32.21
2018-05-04T13:58:29.269Z,32.21
2018-05-04T14:03:30.598Z,32.22
2018-05-04T14:08:31.914Z,31.90
2018-05-04T14:13:33.216Z,32.10
2018-05-04T14:18:34.506Z,32.65
2018-05-04T14:23:35.801Z,32.04
2018-05-04T14:28:37.111Z,31.38
2018-05-04T14:33:38.413Z,31.09
2018-05-04T14:38:39.751Z,31.28
2018-05-04T14:43:41.069Z,30.54
2018-05-04T14:48:42.867Z,30.56
2018-05-04T14:53:44.216Z,31.80
2018-05-04T14:58:46.394Z,30.65
2018-05-04T15:03:48.414Z,30.83
2018-05-04T15:08:49.715Z,30.84
2018-05-04T15:13:51.761Z,31.16
2018-05-04T15:18:53.062Z,30.83
2018-05-04T15:23:54.381Z,31.53
2018-05-04T15:28:55.707Z,32.91
2018-05-04T15:33:57.000Z,31.91
2018-05-04T15:38:58.354Z,30.84
2018-05-04T15:43:59.685Z,31.54
2018-05-04T15:49:06.998Z,30.94
2018-05-04T15:54:08.301Z,31.14
2018-05-04T15:59:09.633Z,30.95
2018-05-04T16:04:10.953Z,31.15
2018-05-04T16:09:13.006Z,30.93
2018-05-04T16:14:14.330Z,30.91
2018-05-04T16:19:15.656Z,30.88
2018-05-04T16:24:16.974Z,31.95
2018-05-04T16:29:18.289Z,30.88
2018-05-04T16:34:19.818Z,30.84
2018-05-04T16:39:22.187Z,31.47
2018-05-04T16:44:23.446Z,32.25
2018-05-04T16:49:24.773Z,32.10
2018-05-04T16:54:26.105Z,32.73
2018-05-04T16:59:27.433Z,33.41
2018-05-04T17:04:28.753Z,35.03
2018-05-04T17:09:30.104Z,35.27
2018-05-04T17:14:31.477Z,34.81
2018-05-04T17:19:32.807Z,34.50
2018-05-04T17:24:34.132Z,35.37
2018-05-04T17:29:36.202Z,35.86
2018-05-04T17:34:37.513Z,35.62
2018-05-04T17:39:39.597Z,36.40
2018-05-04T17:44:40.897Z,36.94
2018-05-04T17:49:42.197Z,36.94
2018-05-04T17:54:44.221Z,37.34
2018-05-04T17:59:46.538Z,38.07
2018-05-04T18:04:47.926Z,38.54
2018-05-04T18:09:49.226Z,38.46
2018-05-04T18:14:50.621Z,38.69
2018-05-04T18:19:51.950Z,38.62
2018-05-04T18:24:53.252Z,39.29
2018-05-04T18:29:54.581Z,39.50
2018-05-04T18:34:55.973Z,40.09
2018-05-04T18:39:57.274Z,39.94
2018-05-04T18:44:58.569Z,40.51
2018-05-04T18:49:59.891Z,41.52
2018-05-04T18:55:01.202Z,41.30
2018-05-04T19:00:03.336Z,41.34
2018-05-04T19:05:04.650Z,41.99
2018-05-04T19:10:05.970Z,41.95
2018-05-04T19:15:07.289Z,41.57
2018-05-04T19:20:08.587Z,42.82
2018-05-04T19:25:09.982Z,42.61
2018-05-04T19:30:11.456Z,42.70
2018-05-04T19:35:12.837Z,43.10
2018-05-04T19:40:14.934Z,42.95
2018-05-04T19:45:16.246Z,43.30
2018-05-04T19:50:18.302Z,43.39
2018-05-04T19:55:19.645Z,43.67
2018-05-04T20:00:20.986Z,43.75
2018-05-04T20:05:22.341Z,43.92
2018-05-04T20:10:23.661Z,44.01
2018-05-04T20:15:26.417Z,43.86
2018-05-04T20:20:27.785Z,42.86
2018-05-04T20:25:30.081Z,42.90
2018-05-04T20:30:33.055Z,43.74
2018-05-04T20:35:34.394Z,44.38
2018-05-04T20:40:35.741Z,45.43
2018-05-04T20:45:37.804Z,46.49
2018-05-04T20:50:39.109Z,47.10
2018-05-04T20:55:40.401Z,46.95
2018-05-04T21:00:41.730Z,47.00
2018-05-04T21:05:43.033Z,47.20
2018-05-04T21:10:44.328Z,48.08
2018-05-04T21:15:45.655Z,48.16
2018-05-04T21:20:46.961Z,48.00
2018-05-04T21:25:49.009Z,48.25
2018-05-04T21:30:50.313Z,48.12
2018-05-04T21:35:51.687Z,48.32
2018-05-04T21:40:53.976Z,49.16
2018-05-04T21:45:55.358Z,49.18
2018-05-04T21:50:57.415Z,49.11
2018-05-04T21:55:58.757Z,49.55
2018-05-04T22:01:00.809Z,49.41
2018-05-04T22:06:02.126Z,48.70
2018-05-04T22:11:03.428Z,48.19
2018-05-04T22:16:05.453Z,48.17
2018-05-04T22:21:06.965Z,48.19
2018-05-04T22:26:08.289Z,48.09
2018-05-04T22:31:09.589Z,48.25
2018-05-04T22:36:10.889Z,48.19
2018-05-04T22:41:12.208Z,48.41
2018-05-04T22:46:13.516Z,48.60
2018-05-04T22:51:14.826Z,48.57
2018-05-04T22:56:16.117Z,48.54
2018-05-04T23:01:17.553Z,48.83
2018-05-04T23:06:19.614Z,48.87
2018-05-04T23:11:20.901Z,49.36
2018-05-04T23:16:22.209Z,48.45
2018-05-04T23:21:23.497Z,48.63
2018-05-04T23:26:24.789Z,48.49
2018-05-04T23:31:26.077Z,48.23
2018-05-04T23:36:27.390Z,48.35
2018-05-04T23:41:29.440Z,48.25
2018-05-04T23:46:30.745Z,48.70
2018-05-04T23:51:32.056Z,48.48
2018-05-04T23:56:33.370Z,48.91
